Time;durP1;ratioP1;P1;durP2;ratioP2;P2;SDS_P1;SDS_P2;PMS_P1;PMS_P2;Temp;Humidity;BMP_temperature;BMP_pressure;BME280_temperature;BME280_humidity;BME280_pressure;Samples;Min_cycle;Max_cycle;Signal;HPM_P1;HPM_P2
2023/03/08 00:01:53;;;;;;;28.20;14.90;;;;;;;0.95;80.41;99225.06;1706537;84;21139;-67
2023/03/08 00:04:24;;;;;;;30.50;15.15;;;;;;;0.94;80.40;99227.41;1772677;81;21560;-66
2023/03/08 00:06:54;;;;;;;31.20;14.80;;;;;;;0.93;80.38;99217.64;1773034;81;21127;-66
2023/03/08 00:09:24;;;;;;;28.80;14.75;;;;;;;0.91;80.36;99214.27;1773018;81;21197;-68
2023/03/08 00:11:55;;;;;;;29.25;15.08;;;;;;;0.90;80.33;99215.27;1772725;81;21100;-64
2023/03/08 00:14:25;;;;;;;31.07;14.40;;;;;;;0.85;80.37;99217.62;1772730;81;21115;-66
2023/03/08 00:16:57;;;;;;;31.20;14.80;;;;;;;0.83;80.48;99206.66;1706540;84;21179;-66
2023/03/08 00:19:27;;;;;;;30.10;14.83;;;;;;;0.80;80.54;99199.75;1772664;81;21146;-66
2023/03/08 00:21:56;;;;;;;32.65;15.98;;;;;;;0.77;80.61;99200.08;1772740;81;21103;-66
2023/03/08 00:24:26;;;;;;;33.20;15.68;;;;;;;0.76;80.75;99188.95;1745711;81;21631;-67
2023/03/08 00:26:58;;;;;;;30.72;16.17;;;;;;;0.74;80.85;99188.78;1743841;82;21145;-65
2023/03/08 00:29:27;;;;;;;31.77;16.12;;;;;;;0.71;81.03;99192.65;1743770;81;21121;-67
2023/03/08 00:31:58;;;;;;;33.67;17.45;;;;;;;0.71;81.21;99189.11;1747014;81;21093;-67
2023/03/08 00:34:27;;;;;;;38.53;17.98;;;;;;;0.70;81.31;99192.31;1751719;80;21093;-66
2023/03/08 00:36:58;;;;;;;33.75;16.82;;;;;;;0.69;81.44;99177.14;1751655;81;21148;-67
2023/03/08 00:39:28;;;;;;;33.50;17.15;;;;;;;0.70;81.56;99182.03;1751780;82;21605;-75
2023/03/08 00:41:59;;;;;;;35.60;16.70;;;;;;;0.69;81.70;99181.69;1751769;80;21117;-67
2023/03/08 00:44:30;;;;;;;37.63;17.27;;;;;;;0.68;81.88;99176.80;1751778;80;21607;-67
2023/03/08 00:46:59;;;;;;;36.73;18.67;;;;;;;0.67;81.95;99179.16;1751715;80;21132;-68
2023/03/08 00:49:29;;;;;;;36.73;18.02;;;;;;;0.62;82.15;99164.80;1751926;82;21305;-68
2023/03/08 00:51:59;;;;;;;33.70;17.02;;;;;;;0.61;82.40;99156.88;1751707;81;21149;-66
2023/03/08 00:54:29;;;;;;;35.50;16.97;;;;;;;0.63;82.66;99162.95;1751806;81;21473;-67
2023/03/08 00:56:59;;;;;;;31.48;16.52;;;;;;;0.70;82.89;99161.31;1751834;81;21537;-66
2023/03/08 00:59:30;;;;;;;31.75;16.77;;;;;;;0.75;83.01;99156.77;1751651;80;21208;-68
2023/03/08 01:02:00;;;;;;;34.33;17.37;;;;;;;0.77;83.05;99148.86;1751736;82;21607;-67
2023/03/08 01:04:33;;;;;;;33.73;16.55;;;;;;;0.80;83.24;99140.44;1751974;80;21124;-66
2023/03/08 01:07:03;;;;;;;37.13;17.25;;;;;;;0.84;83.28;99140.44;1751817;80;21172;-67
2023/03/08 01:09:34;;;;;;;33.92;16.75;;;;;;;0.85;83.32;99129.16;1751706;81;21116;-66
2023/03/08 01:12:05;;;;;;;33.33;15.72;;;;;;;0.87;83.38;99141.96;1751782;80;21191;-68
2023/03/08 01:14:36;;;;;;;39.53;17.55;;;;;;;0.87;83.43;99129.32;1751804;80;21452;-65
2023/03/08 01:17:05;;;;;;;26.48;13.32;;;;;;;0.89;83.53;99138.09;1733269;81;21545;-66
2023/03/08 01:19:37;;;;;;;26.75;13.53;;;;;;;0.95;83.66;99137.92;1751645;80;21136;-67
2023/03/08 01:22:07;;;;;;;24.37;12.33;;;;;;;1.04;83.74;99134.72;1751977;80;21168;-66
2023/03/08 01:24:37;;;;;;;26.52;12.50;;;;;;;1.11;83.64;99134.39;1751488;82;21152;-68
2023/03/08 01:27:08;;;;;;;26.12;13.20;;;;;;;1.18;83.56;99131.35;1751861;80;21045;-68
2023/03/08 01:29:37;;;;;;;24.40;12.95;;;;;;;1.26;83.41;99134.05;1751767;82;21049;-67
2023/03/08 01:32:08;;;;;;;27.40;13.55;;;;;;;1.31;83.21;99129.52;1751512;80;21108;-68
2023/03/08 01:34:41;;;;;;;25.80;12.93;;;;;;;1.34;83.05;99120.59;1751872;80;21022;-66
2023/03/08 01:37:10;;;;;;;24.35;12.37;;;;;;;1.38;82.83;99124.63;1751547;80;21496;-68
2023/03/08 01:39:39;;;;;;;23.02;12.78;;;;;;;1.42;82.68;99114.33;1751674;80;21068;-66
2023/03/08 01:42:09;;;;;;;24.15;13.10;;;;;;;1.44;82.54;99113.15;1751651;82;21014;-66
2023/03/08 01:44:56;;;;;;;25.52;13.03;;;;;;;1.46;82.32;99112.98;1751531;80;21013;-68
2023/03/08 01:47:28;;;;;;;23.35;12.40;;;;;;;1.46;82.19;99118.38;1751662;81;21508;-65
2023/03/08 01:50:07;;;;;;;28.30;13.57;;;;;;;1.47;82.04;99134.40;1750442;81;21025;-65
2023/03/08 01:52:42;;;;;;;27.17;13.38;;;;;;;1.48;81.98;99127.14;1751870;80;20993;-67
2023/03/08 01:55:13;;;;;;;25.15;13.08;;;;;;;1.50;81.90;99125.12;1751895;82;21065;-66
2023/03/08 01:57:53;;;;;;;26.42;13.20;;;;;;;1.52;81.79;99126.63;1751564;80;21492;-66
2023/03/08 02:00:27;;;;;;;24.77;12.80;;;;;;;1.54;81.75;99115.66;1751672;80;21060;-67
2023/03/08 02:03:06;;;;;;;30.55;14.87;;;;;;;1.54;81.61;99117.85;1751904;81;21084;-65
2023/03/08 02:05:38;;;;;;;26.17;13.58;;;;;;;1.54;81.60;99115.66;1733539;82;21100;-67
2023/03/08 02:08:09;;;;;;;24.18;12.28;;;;;;;1.57;81.58;99113.97;1751343;80;21014;-67
2023/03/08 02:10:39;;;;;;;23.30;12.55;;;;;;;1.57;81.43;99114.81;1751670;82;21017;-69
2023/03/08 02:13:12;;;;;;;23.32;12.85;;;;;;;1.55;81.33;99120.89;1751702;81;21072;-69
2023/03/08 02:15:45;;;;;;;24.80;13.68;;;;;;;1.55;81.35;99108.74;1751801;80;21013;-67
2023/03/08 02:18:16;;;;;;;26.30;13.48;;;;;;;1.57;81.38;99111.27;1751610;80;21049;-66
2023/03/08 02:20:47;;;;;;;27.85;13.45;;;;;;;1.57;81.41;99112.62;1751621;81;21041;-65
2023/03/08 02:23:23;;;;;;;34.13;15.98;;;;;;;1.61;81.38;99119.36;1764149;81;21035;-65
2023/03/08 02:26:02;;;;;;;35.40;15.83;;;;;;;1.62;81.24;99109.41;1778157;81;21021;-65
2023/03/08 02:28:34;;;;;;;33.53;16.70;;;;;;;1.57;81.18;99120.21;1711921;83;21032;-67
2023/03/08 02:31:03;;;;;;;33.90;16.55;;;;;;;1.55;81.31;99117.34;1778165;80;21098;-67
2023/03/08 02:33:34;;;;;;;31.52;15.72;;;;;;;1.56;81.40;99108.23;1707572;83;21056;-66
2023/03/08 02:36:04;;;;;;;37.90;16.05;;;;;;;1.58;81.51;99107.55;1773065;81;21043;-66
2023/03/08 02:38:34;;;;;;;30.60;15.78;;;;;;;1.58;81.56;99102.16;1773016;81;21012;-67
2023/03/08 02:41:04;;;;;;;27.82;14.15;;;;;;;1.61;81.61;99098.27;1772900;81;21062;-68
2023/03/08 02:43:32;;;;;;;28.07;14.18;;;;;;;1.61;81.64;99098.27;1773054;81;21016;-66
2023/03/08 02:46:01;;;;;;;29.27;14.07;;;;;;;1.61;81.66;99099.63;1772603;81;21059;-66
2023/03/08 02:48:33;;;;;;;29.48;14.38;;;;;;;1.59;81.73;99099.28;1706995;84;21080;-65
2023/03/08 02:51:02;;;;;;;29.00;15.15;;;;;;;1.59;81.85;99097.94;1772883;81;21427;-65
2023/03/08 02:53:33;;;;;;;25.43;13.93;;;;;;;1.62;81.86;99102.66;1706667;84;21498;-66
2023/03/08 02:56:03;;;;;;;29.57;13.72;;;;;;;1.61;81.88;99096.92;1772696;81;21028;-64
2023/03/08 02:58:34;;;;;;;28.35;14.83;;;;;;;1.61;81.95;99101.81;1773268;81;21059;-65
2023/03/08 03:01:11;;;;;;;28.62;14.60;;;;;;;1.59;82.00;99099.28;1706729;84;21079;-67
2023/03/08 03:03:42;;;;;;;24.67;13.58;;;;;;;1.62;82.07;99090.00;1772783;81;21075;-65
2023/03/08 03:06:18;;;;;;;25.72;13.58;;;;;;;1.62;82.15;99089.16;1706563;84;21060;-65
2023/03/08 03:08:50;;;;;;;29.07;13.37;;;;;;;1.64;82.22;99091.17;1772926;81;21448;-65
2023/03/08 03:11:21;;;;;;;23.18;12.20;;;;;;;1.69;82.36;99087.45;1686530;84;21071;-65
2023/03/08 03:13:58;;;;;;;24.15;12.40;;;;;;;1.76;82.35;99085.74;1772770;81;21025;-66
2023/03/08 03:16:30;;;;;;;23.67;12.35;;;;;;;1.80;82.27;99079.82;1773125;81;21026;-66
2023/03/08 03:18:59;;;;;;;23.45;12.37;;;;;;;1.84;82.18;99077.61;1706696;84;21121;-67
2023/03/08 03:21:31;;;;;;;25.35;12.75;;;;;;;1.89;82.12;99083.33;1772722;81;21024;-68
2023/03/08 03:24:01;;;;;;;23.85;11.85;;;;;;;1.94;82.01;99077.41;1750847;81;21077;-67
2023/03/08 03:26:37;;;;;;;22.87;11.70;;;;;;;1.98;81.85;99080.97;1743991;81;21049;-67
2023/03/08 03:29:07;;;;;;;30.27;12.28;;;;;;;2.01;81.68;99080.61;1743802;81;21025;-66
2023/03/08 03:31:38;;;;;;;22.52;11.68;;;;;;;2.05;81.52;99073.00;1743785;81;21042;-66
2023/03/08 03:34:07;;;;;;;24.85;12.15;;;;;;;2.08;81.34;99077.54;1750941;81;21065;-66
2023/03/08 03:36:39;;;;;;;23.80;12.35;;;;;;;2.12;81.26;99080.73;1751829;82;21033;-67
2023/03/08 03:39:08;;;;;;;25.55;11.68;;;;;;;2.16;81.13;99065.34;1751827;80;21022;-66
2023/03/08 03:41:38;;;;;;;24.75;12.23;;;;;;;2.19;80.96;99058.23;1751692;82;20990;-66
2023/03/08 03:44:10;;;;;;;22.37;12.58;;;;;;;2.20;80.73;99064.48;1751668;80;21429;-68
2023/03/08 03:46:40;;;;;;;26.90;12.45;;;;;;;2.22;80.64;99059.73;1751689;82;21051;-66
2023/03/08 03:49:10;;;;;;;27.62;12.43;;;;;;;2.25;80.51;99058.55;1751879;82;20990;-66
2023/03/08 03:51:41;;;;;;;23.20;11.60;;;;;;;2.26;80.40;99057.52;1751705;80;21049;-65
2023/03/08 03:54:12;;;;;;;25.30;12.65;;;;;;;2.29;80.30;99042.30;1751628;81;21001;-66
2023/03/08 03:56:42;;;;;;;23.85;12.93;;;;;;;2.30;80.16;99035.88;1751715;80;21052;-65
2023/03/08 03:59:11;;;;;;;24.15;12.03;;;;;;;2.31;80.07;99041.62;1752284;80;21085;-64
2023/03/08 04:01:42;;;;;;;24.07;12.63;;;;;;;2.33;79.97;99046.33;1752106;82;21053;-69
2023/03/08 04:04:17;;;;;;;24.98;13.80;;;;;;;2.34;79.83;99048.86;1751226;81;20989;-67
2023/03/08 04:06:47;;;;;;;23.57;12.25;;;;;;;2.37;79.72;99038.20;1733213;81;21418;-67
2023/03/08 04:09:18;;;;;;;23.42;12.82;;;;;;;2.37;79.55;99036.84;1752022;80;20985;-68
2023/03/08 04:11:50;;;;;;;27.15;13.22;;;;;;;2.38;79.47;99043.94;1751181;81;21029;-65
2023/03/08 04:14:21;;;;;;;27.00;13.85;;;;;;;2.39;79.34;99044.27;1751755;80;21469;-67
2023/03/08 04:16:51;;;;;;;27.07;13.55;;;;;;;2.37;79.25;99029.58;1751765;80;20990;-67
2023/03/08 04:19:23;;;;;;;25.43;12.80;;;;;;;2.38;79.18;99019.61;1750880;81;21090;-67
2023/03/08 04:21:56;;;;;;;29.42;14.40;;;;;;;2.38;79.11;99015.56;1751855;80;21084;-65
2023/03/08 04:24:28;;;;;;;28.47;14.45;;;;;;;2.37;79.00;99017.42;1779548;80;21012;-66
2023/03/08 04:26:59;;;;;;;29.32;14.05;;;;;;;2.36;79.02;99015.73;1780949;80;21044;-66
2023/03/08 04:29:31;;;;;;;30.62;14.75;;;;;;;2.36;79.01;99013.03;1781084;80;21444;-67
2023/03/08 04:32:00;;;;;;;29.92;14.60;;;;;;;2.39;79.00;99005.08;1780978;80;21463;-65
2023/03/08 04:34:32;;;;;;;29.77;15.08;;;;;;;2.38;78.91;99011.50;1684892;83;21207;-66
2023/03/08 04:37:04;;;;;;;27.98;14.43;;;;;;;2.37;78.83;99000.36;1686874;85;21076;-66
2023/03/08 04:39:37;;;;;;;28.35;13.93;;;;;;;2.36;78.77;99006.28;1711915;84;21107;-66
2023/03/08 04:42:06;;;;;;;30.52;15.18;;;;;;;2.34;78.84;99004.27;1711960;84;21071;-68
2023/03/08 04:44:37;;;;;;;27.67;14.63;;;;;;;2.36;78.89;99002.22;1712265;84;21032;-69
2023/03/08 04:47:08;;;;;;;27.32;14.55;;;;;;;2.40;78.87;99003.55;1711969;83;21000;-66
2023/03/08 04:49:46;;;;;;;30.52;15.15;;;;;;;2.38;78.74;99005.59;1711989;83;21032;-66
2023/03/08 04:52:15;;;;;;;30.82;14.85;;;;;;;2.38;78.76;99015.05;1712301;83;21059;-66
2023/03/08 04:54:44;;;;;;;29.18;14.25;;;;;;;2.38;78.76;99016.91;1711906;84;21056;-65
2023/03/08 04:57:22;;;;;;;30.08;14.15;;;;;;;2.37;78.81;99021.98;1712366;83;21013;-66
2023/03/08 04:59:59;;;;;;;30.30;13.98;;;;;;;2.37;78.84;99020.13;1712169;84;20996;-66
2023/03/08 05:02:33;;;;;;;25.52;12.85;;;;;;;2.39;78.87;99010.48;1663957;84;21075;-66
2023/03/08 05:05:04;;;;;;;26.68;13.88;;;;;;;2.40;78.80;99011.66;1712247;84;21035;-66
2023/03/08 05:07:35;;;;;;;25.37;13.28;;;;;;;2.42;78.67;99006.91;1711810;84;21036;-67
2023/03/08 05:10:05;;;;;;;24.75;12.47;;;;;;;2.43;78.59;98996.94;1711922;83;21048;-66
2023/03/08 05:12:35;;;;;;;27.32;13.18;;;;;;;2.45;78.50;98998.95;1711954;84;21083;-65
2023/03/08 05:15:06;;;;;;;26.55;12.93;;;;;;;2.46;78.40;98991.17;1712023;84;21048;-66
2023/03/08 05:17:37;;;;;;;23.85;12.65;;;;;;;2.47;78.38;98990.99;1712015;83;21039;-66
2023/03/08 05:20:09;;;;;;;23.42;12.00;;;;;;;2.50;78.33;98991.98;1711848;83;21056;-65
2023/03/08 05:22:41;;;;;;;24.57;12.45;;;;;;;2.53;78.23;98993.48;1707337;83;21026;-66
2023/03/08 05:25:13;;;;;;;28.55;13.03;;;;;;;2.56;78.16;98991.77;1687026;85;21074;-66
2023/03/08 05:27:47;;;;;;;26.25;12.58;;;;;;;2.58;78.04;98995.13;1689752;85;21134;-67
2023/03/08 05:30:18;;;;;;;25.08;13.08;;;;;;;2.59;77.90;98988.70;1689533;83;21551;-70
2023/03/08 05:32:48;;;;;;;27.05;13.13;;;;;;;2.60;77.88;98991.77;1692548;83;21038;-67
2023/03/08 05:35:18;;;;;;;26.05;12.28;;;;;;;2.63;77.89;98987.86;1733766;82;21639;-67
2023/03/08 05:37:47;;;;;;;25.85;12.75;;;;;;;2.67;77.77;98990.53;1733894;83;21018;-65
2023/03/08 05:40:18;;;;;;;24.60;13.35;;;;;;;2.68;77.75;98998.47;1733874;83;21094;-66
2023/03/08 05:42:48;;;;;;;23.67;12.43;;;;;;;2.72;77.78;98999.78;1733792;83;21003;-68
2023/03/08 05:45:19;;;;;;;25.35;13.30;;;;;;;2.75;77.61;98986.41;1733925;82;21725;-67
2023/03/08 05:47:49;;;;;;;26.97;13.35;;;;;;;2.78;77.49;98985.53;1733912;83;21519;-66
2023/03/08 05:50:20;;;;;;;24.65;12.88;;;;;;;2.82;77.42;98980.08;1733825;83;21003;-65
2023/03/08 05:52:51;;;;;;;27.35;13.08;;;;;;;2.86;77.21;98986.81;1733811;83;21023;-67
2023/03/08 05:55:23;;;;;;;25.32;13.03;;;;;;;2.90;77.06;98979.67;1733746;82;21075;-66
2023/03/08 05:57:54;;;;;;;27.25;13.65;;;;;;;2.92;76.92;98973.58;1733866;81;21062;-68
2023/03/08 06:00:27;;;;;;;26.07;12.23;;;;;;;2.97;76.87;98986.03;1733874;83;21035;-67
2023/03/08 06:03:05;;;;;;;25.45;12.88;;;;;;;3.00;76.73;98982.96;1709616;83;21079;-68
2023/03/08 06:05:37;;;;;;;28.38;13.13;;;;;;;3.01;76.55;98983.29;1675930;84;21093;-67
2023/03/08 06:08:09;;;;;;;25.85;12.90;;;;;;;3.03;76.51;98990.71;1675671;85;21037;-67
2023/03/08 06:10:39;;;;;;;23.73;12.53;;;;;;;3.05;76.35;98976.48;1675926;85;21086;-67
2023/03/08 06:13:10;;;;;;;19.98;11.50;;;;;;;3.07;76.15;98974.44;1675787;85;21023;-67
2023/03/08 06:15:39;;;;;;;28.30;12.93;;;;;;;3.10;75.93;98972.71;1675859;84;21027;-66
2023/03/08 06:18:09;;;;;;;22.73;12.00;;;;;;;3.13;75.92;98966.93;1675690;85;21046;-66
2023/03/08 06:20:40;;;;;;;26.57;12.37;;;;;;;3.15;75.81;98951.34;1653559;85;21594;-70
2023/03/08 06:23:10;;;;;;;25.52;12.85;;;;;;;3.18;75.68;98953.68;1686978;83;21089;-67
2023/03/08 06:25:43;;;;;;;24.57;12.63;;;;;;;3.20;75.65;98947.57;1702993;84;21045;-66
2023/03/08 06:28:15;;;;;;;21.77;12.05;;;;;;;3.25;75.64;98947.02;1721340;82;21066;-68
2023/03/08 06:30:51;;;;;;;24.05;11.78;;;;;;;3.30;75.54;98949.52;1646626;87;21076;-68
2023/03/08 06:33:24;;;;;;;33.65;13.72;;;;;;;3.33;75.50;98960.48;1683128;84;21087;-64
2023/03/08 06:36:07;;;;;;;25.00;12.58;;;;;;;3.38;75.39;98957.55;1701788;84;21067;-66
2023/03/08 06:38:40;;;;;;;23.32;12.70;;;;;;;3.44;75.37;98954.60;1680062;84;21431;-67
2023/03/08 06:41:11;;;;;;;25.52;11.60;;;;;;;3.50;75.28;98954.69;1701731;84;21008;-68
2023/03/08 06:43:42;;;;;;;22.27;11.75;;;;;;;3.54;75.08;98955.66;1702081;83;21212;-67
2023/03/08 06:46:16;;;;;;;30.12;12.15;;;;;;;3.59;75.02;98960.00;1702081;84;21043;-65
2023/03/08 06:48:46;;;;;;;25.52;13.30;;;;;;;3.66;74.98;98963.64;1701672;83;21479;-66
2023/03/08 06:51:29;;;;;;;24.85;12.85;;;;;;;3.71;74.86;98963.91;1701810;84;21501;-68
2023/03/08 06:54:06;;;;;;;26.95;12.70;;;;;;;3.77;74.74;98959.09;1701894;84;21122;-68
2023/03/08 06:56:42;;;;;;;25.70;12.75;;;;;;;3.82;74.58;98957.48;1753942;80;21027;-66
2023/03/08 06:59:14;;;;;;;26.60;12.15;;;;;;;3.89;74.44;98958.92;1753918;82;21043;-68
2023/03/08 07:01:44;;;;;;;24.32;12.20;;;;;;;3.97;74.39;98961.55;1753868;82;21039;-68
2023/03/08 07:04:20;;;;;;;23.52;12.25;;;;;;;4.05;73.87;98960.08;1754079;82;21102;-68
2023/03/08 07:06:51;;;;;;;34.53;13.25;;;;;;;4.14;73.65;98963.52;1701611;84;21480;-68
2023/03/08 07:09:21;;;;;;;32.83;14.00;;;;;;;4.24;73.62;98957.27;1655995;85;21079;-69
2023/03/08 07:11:51;;;;;;;35.60;16.62;;;;;;;4.35;73.55;98957.27;1625679;87;21032;-67
2023/03/08 07:14:21;;;;;;;81.47;27.15;;;;;;;4.46;73.27;98956.75;1648468;87;21048;-67
2023/03/08 07:16:52;;;;;;;49.27;19.45;;;;;;;4.56;73.09;98946.45;1648295;87;21527;-69
2023/03/08 07:19:21;;;;;;;35.98;14.83;;;;;;;4.65;72.48;98943.92;1648577;87;21035;-69
2023/03/08 07:21:55;;;;;;;41.50;16.37;;;;;;;4.74;72.37;98946.81;1648371;87;21558;-68
2023/03/08 07:24:27;;;;;;;30.25;15.00;;;;;;;4.83;72.06;98942.59;1648583;87;21542;-67
2023/03/08 07:27:01;;;;;;;39.10;17.37;;;;;;;4.93;71.72;98947.16;1648479;87;21176;-67
2023/03/08 07:29:33;;;;;;;54.73;22.87;;;;;;;5.01;71.34;98946.50;1648522;87;22047;-67
2023/03/08 07:32:07;;;;;;;43.83;17.23;;;;;;;5.08;71.10;98932.97;1693310;84;21048;-67
2023/03/08 07:34:38;;;;;;;29.18;13.95;;;;;;;5.15;70.85;98929.78;1708975;84;21071;-67
2023/03/08 07:37:12;;;;;;;55.35;21.50;;;;;;;5.22;70.06;98920.35;1732991;82;21059;-68
2023/03/08 07:39:43;;;;;;;55.60;18.77;;;;;;;5.27;70.10;98922.79;1751909;80;21031;-68
2023/03/08 07:42:13;;;;;;;61.20;20.23;;;;;;;5.34;70.02;98942.67;1751800;81;20991;-68
2023/03/08 07:44:50;;;;;;;42.45;15.10;;;;;;;5.43;69.84;98937.08;1751950;81;21047;-68
2023/03/08 07:47:21;;;;;;;38.15;15.08;;;;;;;5.51;69.44;98938.27;1751715;82;21039;-69
2023/03/08 07:49:51;;;;;;;30.95;12.23;;;;;;;5.59;69.16;98933.51;1751734;82;21032;-70
2023/03/08 07:52:28;;;;;;;34.25;13.25;;;;;;;5.66;68.86;98930.82;1751713;81;21388;-67
2023/03/08 07:54:57;;;;;;;29.12;14.47;;;;;;;5.72;68.57;98921.86;1733376;82;21608;-68
2023/03/08 07:57:27;;;;;;;29.80;13.40;;;;;;;5.77;68.42;98920.73;1751878;80;21095;-69
2023/03/08 07:59:56;;;;;;;30.20;13.08;;;;;;;5.84;68.34;98916.67;1751762;82;21023;-68
2023/03/08 08:02:27;;;;;;;23.38;12.37;;;;;;;5.90;68.06;98917.28;1751797;81;21490;-67
2023/03/08 08:05:03;;;;;;;23.42;12.68;;;;;;;5.92;67.67;98916.03;1751730;82;20984;-66
2023/03/08 08:07:33;;;;;;;26.97;12.07;;;;;;;5.93;67.51;98917.71;1751718;82;21059;-67
2023/03/08 08:10:07;;;;;;;28.73;12.78;;;;;;;5.97;67.26;98910.83;1751776;81;21404;-66
2023/03/08 08:12:39;;;;;;;27.35;12.23;;;;;;;5.99;67.19;98905.19;1751734;81;21015;-69
2023/03/08 08:15:11;;;;;;;23.25;11.90;;;;;;;6.04;67.17;98905.41;1751785;81;21023;-67
2023/03/08 08:17:41;;;;;;;26.05;12.05;;;;;;;6.09;66.74;98912.42;1751812;81;21454;-67
2023/03/08 08:20:21;;;;;;;42.53;14.65;;;;;;;6.14;66.33;98909.92;1751797;80;21544;-70
2023/03/08 08:22:53;;;;;;;22.95;11.20;;;;;;;6.23;66.34;98907.33;1751752;82;21483;-69
2023/03/08 08:25:24;;;;;;;29.48;12.18;;;;;;;6.36;66.01;98901.91;1751813;81;21020;-70
2023/03/08 08:27:56;;;;;;;75.50;16.05;;;;;;;6.47;65.69;98907.25;1715754;82;21165;-67
2023/03/08 08:30:29;;;;;;;25.72;11.70;;;;;;;6.55;65.22;98905.72;1751803;80;21491;-68
2023/03/08 08:33:06;;;;;;;30.05;12.20;;;;;;;6.59;64.99;98909.70;1751744;80;21079;-65
2023/03/08 08:35:36;;;;;;;21.62;11.48;;;;;;;6.65;64.89;98899.34;1744906;82;21091;-69
2023/03/08 08:38:09;;;;;;;38.95;15.90;;;;;;;6.71;64.64;98904.47;1733766;82;21091;-67
2023/03/08 08:40:41;;;;;;;27.58;11.60;;;;;;;6.76;64.68;98907.92;1743831;82;21027;-69
2023/03/08 08:43:13;;;;;;;58.58;25.70;;;;;;;6.79;64.30;98915.14;1743951;82;21020;-69
2023/03/08 08:45:50;;;;;;;52.35;20.32;;;;;;;6.84;63.81;98915.88;1744058;82;21016;-67
2023/03/08 08:48:25;;;;;;;71.53;28.55;;;;;;;6.85;63.71;98911.58;1745707;81;20984;-70
2023/03/08 08:50:57;;;;;;;65.25;23.18;;;;;;;6.90;63.62;98919.13;1737329;82;21287;-70
2023/03/08 08:53:31;;;;;;;106.78;39.25;;;;;;;6.92;63.37;98912.94;1715783;82;21170;-67
2023/03/08 08:56:16;;;;;;;108.78;43.25;;;;;;;6.91;63.16;98912.10;1737441;82;21039;-66
2023/03/08 08:58:49;;;;;;;87.67;34.20;;;;;;;6.91;63.18;98907.18;1736064;82;21455;-68
2023/03/08 09:01:23;;;;;;;46.60;20.32;;;;;;;6.92;63.11;98916.50;1737362;81;21659;-65
2023/03/08 09:03:53;;;;;;;74.67;32.25;;;;;;;6.95;63.19;98912.52;1737408;82;21035;-62
2023/03/08 09:06:24;;;;;;;40.48;18.42;;;;;;;6.99;63.33;98909.69;1744621;81;21049;-64
2023/03/08 09:08:55;;;;;;;38.67;17.80;;;;;;;7.06;63.15;98902.87;1743638;81;21085;-67
2023/03/08 09:11:29;;;;;;;28.92;12.68;;;;;;;7.11;62.94;98907.16;1743463;81;21088;-64
2023/03/08 09:13:59;;;;;;;20.23;10.65;;;;;;;7.18;62.78;98889.78;1743706;81;21483;-62
2023/03/08 09:16:31;;;;;;;16.70;10.23;;;;;;;7.22;62.55;98888.30;1743674;81;21038;-64
2023/03/08 09:19:02;;;;;;;25.25;11.88;;;;;;;7.29;62.46;98894.58;1743777;82;20986;-64
2023/03/08 09:21:33;;;;;;;21.73;10.63;;;;;;;7.37;62.48;98887.22;1733498;81;21069;-65
2023/03/08 09:24:05;;;;;;;20.82;10.15;;;;;;;7.44;62.39;98888.03;1766563;81;21486;-65
2023/03/08 09:26:34;;;;;;;21.48;9.83;;;;;;;7.51;62.41;98888.84;1772626;81;21048;-65
2023/03/08 09:29:04;;;;;;;21.55;10.13;;;;;;;7.56;62.09;98891.23;1706574;84;21028;-63
2023/03/08 09:31:35;;;;;;;20.02;9.65;;;;;;;7.58;61.78;98892.39;1772825;81;21075;-64
2023/03/08 09:34:07;;;;;;;21.35;9.90;;;;;;;7.59;61.55;98892.17;1772720;81;21036;-68
2023/03/08 09:36:42;;;;;;;20.15;10.30;;;;;;;7.60;61.30;98882.11;1751503;81;21044;-64
2023/03/08 09:39:12;;;;;;;15.38;9.05;;;;;;;7.59;61.54;98883.99;1772652;81;21016;-62
2023/03/08 09:41:48;;;;;;;17.50;10.10;;;;;;;7.61;62.27;98891.95;1772611;81;21063;-63
2023/03/08 09:44:51;;;;;;;18.95;10.15;;;;;;;7.62;63.23;98882.20;1706524;84;21090;-66
2023/03/08 09:47:48;;;;;;;23.35;10.30;;;;;;;7.62;62.94;98886.28;1772778;81;20981;-66
2023/03/08 09:50:45;;;;;;;21.40;10.10;;;;;;;7.62;63.04;98886.81;1772623;81;21508;-68
2023/03/08 09:53:35;;;;;;;20.40;9.93;;;;;;;7.59;62.82;98890.80;1772733;81;21004;-63
2023/03/08 09:56:36;;;;;;;23.15;9.70;;;;;;;7.56;62.56;98895.33;1772702;80;21013;-66
2023/03/08 09:59:12;;;;;;;23.07;9.45;;;;;;;7.58;62.52;98897.84;1772579;81;21004;-65
2023/03/08 10:01:50;;;;;;;17.90;9.53;;;;;;;7.59;62.72;98891.34;1683207;84;21083;-62
2023/03/08 10:04:58;;;;;;;23.83;9.48;;;;;;;7.63;62.47;98904.84;1772446;81;21043;-63
2023/03/08 10:07:45;;;;;;;15.98;9.63;;;;;;;7.70;62.37;98903.45;1706626;84;21008;-63
2023/03/08 10:10:25;;;;;;;18.15;9.18;;;;;;;7.77;62.73;98903.73;1772487;81;21032;-63
2023/03/08 10:13:21;;;;;;;16.10;9.53;;;;;;;7.79;62.89;98908.97;1684876;84;21432;-65
2023/03/08 10:15:53;;;;;;;16.37;8.95;;;;;;;7.79;62.51;98919.34;1772450;81;21047;-64
2023/03/08 10:18:52;;;;;;;16.50;9.18;;;;;;;7.68;62.81;98911.84;1751049;81;21476;-64
2023/03/08 10:21:24;;;;;;;16.00;9.38;;;;;;;7.60;63.73;98905.27;1772551;81;21110;-63
2023/03/08 10:24:25;;;;;;;16.93;9.93;;;;;;;7.54;65.32;98893.34;1667306;85;21040;-64
2023/03/08 10:27:13;;;;;;;17.32;9.50;;;;;;;7.50;65.80;98881.73;1743852;81;21081;-63
2023/03/08 10:29:54;;;;;;;17.15;9.10;;;;;;;7.48;66.43;98879.22;1743723;81;21054;-65
2023/03/08 10:32:24;;;;;;;18.17;9.48;;;;;;;7.52;66.84;98873.64;1743485;81;21045;-67
2023/03/08 10:35:02;;;;;;;17.67;10.05;;;;;;;7.54;67.16;98894.70;1743638;81;21053;-64
2023/03/08 10:37:35;;;;;;;14.73;9.08;;;;;;;7.53;67.50;98878.05;1743565;81;21026;-63
2023/03/08 10:40:18;;;;;;;14.78;8.40;;;;;;;7.53;67.05;98881.30;1743528;82;21102;-66
2023/03/08 10:42:59;;;;;;;16.32;10.05;;;;;;;7.47;67.17;98873.98;1747185;80;21053;-64
2023/03/08 10:45:29;;;;;;;18.70;10.00;;;;;;;7.37;67.53;98877.69;1733361;81;21029;-65
2023/03/08 10:48:02;;;;;;;16.27;10.18;;;;;;;7.24;68.10;98868.50;1743808;81;21030;-64
2023/03/08 10:50:35;;;;;;;17.40;9.83;;;;;;;7.17;68.90;98875.85;1743650;82;21501;-64
2023/03/08 10:53:17;;;;;;;16.23;8.90;;;;;;;7.13;69.52;98874.57;1743976;81;20982;-64
2023/03/08 10:55:50;;;;;;;18.77;9.58;;;;;;;7.08;69.69;98877.09;1743687;81;21073;-64
2023/03/08 10:58:33;;;;;;;20.70;12.03;;;;;;;7.02;70.30;98876.59;1743563;81;21531;-63
2023/03/08 11:01:08;;;;;;;22.25;11.70;;;;;;;6.97;70.84;98880.47;1743833;81;21022;-62
2023/03/08 11:03:38;;;;;;;16.67;10.13;;;;;;;6.96;71.52;98874.19;1742730;81;21041;-63
2023/03/08 11:06:15;;;;;;;18.07;9.80;;;;;;;6.96;71.84;98871.99;1743745;81;21046;-63
2023/03/08 11:08:56;;;;;;;18.25;11.05;;;;;;;6.94;72.26;98872.73;1743633;81;21022;-64
2023/03/08 11:11:26;;;;;;;18.92;10.98;;;;;;;6.92;72.57;98862.58;1733586;82;20998;-65
2023/03/08 11:13:59;;;;;;;19.57;10.25;;;;;;;6.91;73.17;98869.06;1743737;82;21077;-64
2023/03/08 11:16:46;;;;;;;15.83;9.90;;;;;;;6.91;73.40;98877.23;1733280;81;21089;-65
2023/03/08 11:19:40;;;;;;;19.62;11.25;;;;;;;6.87;72.62;98880.06;1666124;81;21483;-66
2023/03/08 11:22:27;;;;;;;18.70;10.88;;;;;;;6.79;72.84;98854.42;1743653;81;21021;-67
2023/03/08 11:25:23;;;;;;;20.55;11.08;;;;;;;6.73;73.44;98843.02;1772560;81;21031;-64
2023/03/08 11:28:07;;;;;;;25.77;12.47;;;;;;;6.67;74.40;98843.34;1706501;84;21112;-65
2023/03/08 11:30:58;;;;;;;22.95;11.18;;;;;;;6.65;75.23;98846.27;1772725;81;21051;-64
2023/03/08 11:34:03;;;;;;;22.10;11.55;;;;;;;6.65;75.82;98853.08;1772636;81;21420;-68
2023/03/08 11:36:41;;;;;;;19.17;10.75;;;;;;;6.66;76.53;98854.75;1713368;84;21103;-66
2023/03/08 11:39:50;;;;;;;25.82;11.45;;;;;;;6.68;77.34;98856.73;1768199;80;21138;-67
2023/03/08 11:42:51;;;;;;;17.50;10.25;;;;;;;6.70;77.75;98850.25;1780942;80;21028;-65
2023/03/08 11:45:57;;;;;;;18.57;10.43;;;;;;;6.70;77.95;98851.08;1781008;80;21019;-67
2023/03/08 11:49:10;;;;;;;16.80;8.40;;;;;;;6.70;78.41;98831.20;1780798;80;21066;-66
2023/03/08 11:52:02;;;;;;;19.15;9.25;;;;;;;7.02;81.38;98833.55;1686915;84;21032;-68
2023/03/08 11:54:42;;;;;;;17.50;10.10;;;;;;;7.41;80.56;98832.08;1718771;80;21047;-67
2023/03/08 11:57:16;;;;;;;19.87;11.25;;;;;;;7.73;80.66;98825.33;1780921;80;21016;-65
2023/03/08 12:00:07;;;;;;;17.10;9.20;;;;;;;8.06;79.65;98823.80;1780814;80;21016;-66